<?xml version="1.0" encoding="UTF-8" standalone="no" ?>
<gpx xmlns="http://www.topografix.com/GPX/1/1" creator="CompeGPS" version="1.1" xmlns:xsi="http://www.w3.org/2001/XMLSchema-instance" xsi:schemaLocation="http://www.topografix.com/GPX/1/1 http://www.topografix.com/GPX/1/1/gpx.xsd http://www.garmin.com/xmlschemas/GpxExtensions/v3 http://www.garmin.com/xmlschemas/GpxExtensionsv3.xsd http://www.garmin.com/xmlschemas/TrackPointExtension/v1 http://www.garmin.com/xmlschemas/TrackPointExtensionv1.xsd" xmlns:gpxtpx="http://www.garmin.com/xmlschemas/TrackPointExtension/v1">
  <metadata>
    <link href="http://www.compegps.com">
      <text>CompeGPS TEAM, SL</text>
    </link>
    <time>2014-03-21T09:06:53Z</time>
    <bounds maxlat="43.543380" maxlon="1.478511" minlat="43.520786" minlon="1.454622"/>
  </metadata>
<wpt lat="43.529896" lon="1.478469">
  <ele>185</ele>
  <name>Auzeville-Tolosane</name>
</wpt>
<wpt lat="43.527825" lon="1.477329">
  <ele>200</ele>
  <name>Merli</name>
</wpt>
<wpt lat="43.533898" lon="1.469703">
  <ele>200</ele>
  <name>La Comtesse</name>
</wpt>
<wpt lat="43.543379" lon="1.457075">
  <ele>215</ele>
  <name>Peyre d Escale</name>
</wpt>
<wpt lat="43.532786" lon="1.461360">
  <ele>170</ele>
  <name>Coustalas</name>
</wpt>
<wpt lat="43.528780" lon="1.464919">
  <ele>185</ele>
  <name>Durand</name>
</wpt>
<wpt lat="43.525628" lon="1.471781">
  <ele>215</ele>
  <name>Blancas</name>
</wpt>
<trk>
    <name>Auzeville-Tolosane</name>
    <trkseg>
      <trkpt lat="43.529896" lon="1.478469">
        <ele>192.3</ele>
        <time>2014-03-20T13:43:24Z</time>
        <name>Auzeville-Tolosane</name>
      </trkpt>
      <trkpt lat="43.529809" lon="1.478405">
        <ele>192.5</ele>
        <time>2014-03-20T13:43:33Z</time>
      </trkpt>
      <trkpt lat="43.529719" lon="1.478336">
        <ele>193.0</ele>
        <time>2014-03-20T13:43:43Z</time>
      </trkpt>
      <trkpt lat="43.529626" lon="1.478280">
        <ele>193.5</ele>
        <time>2014-03-20T13:43:53Z</time>
      </trkpt>
      <trkpt lat="43.529552" lon="1.478192">
        <ele>193.5</ele>
        <time>2014-03-20T13:44:02Z</time>
      </trkpt>
      <trkpt lat="43.529469" lon="1.478106">
        <ele>193.5</ele>
        <time>2014-03-20T13:44:12Z</time>
      </trkpt>
      <trkpt lat="43.529357" lon="1.478003">
        <ele>193.9</ele>
        <time>2014-03-20T13:44:24Z</time>
      </trkpt>
      <trkpt lat="43.529272" lon="1.477901">
        <ele>194.3</ele>
        <time>2014-03-20T13:44:33Z</time>
      </trkpt>
      <trkpt lat="43.529195" lon="1.477808">
        <ele>194.9</ele>
        <time>2014-03-20T13:44:42Z</time>
      </trkpt>
      <trkpt lat="43.529114" lon="1.477695">
        <ele>195.4</ele>
        <time>2014-03-20T13:44:53Z</time>
      </trkpt>
      <trkpt lat="43.529011" lon="1.477663">
        <ele>195.8</ele>
        <time>2014-03-20T13:45:04Z</time>
      </trkpt>
      <trkpt lat="43.528899" lon="1.477619">
        <ele>197.0</ele>
        <time>2014-03-20T13:45:14Z</time>
      </trkpt>
      <trkpt lat="43.528780" lon="1.477594">
        <ele>197.9</ele>
        <time>2014-03-20T13:45:24Z</time>
      </trkpt>
      <trkpt lat="43.528664" lon="1.477578">
        <ele>198.6</ele>
        <time>2014-03-20T13:45:35Z</time>
      </trkpt>
      <trkpt lat="43.528552" lon="1.477588">
        <ele>200.1</ele>
        <time>2014-03-20T13:45:45Z</time>
      </trkpt>
      <trkpt lat="43.528449" lon="1.477601">
        <ele>200.8</ele>
        <time>2014-03-20T13:45:55Z</time>
      </trkpt>
      <trkpt lat="43.528346" lon="1.477594">
        <ele>201.5</ele>
        <time>2014-03-20T13:46:05Z</time>
      </trkpt>
      <trkpt lat="43.528245" lon="1.477565">
        <ele>202.6</ele>
        <time>2014-03-20T13:46:14Z</time>
      </trkpt>
      <trkpt lat="43.528147" lon="1.477485">
        <ele>203.9</ele>
        <time>2014-03-20T13:46:25Z</time>
      </trkpt>
      <trkpt lat="43.528044" lon="1.477438">
        <ele>204.7</ele>
        <time>2014-03-20T13:46:35Z</time>
      </trkpt>
      <trkpt lat="43.527941" lon="1.477359">
        <ele>205.3</ele>
        <time>2014-03-20T13:46:45Z</time>
      </trkpt>
      <trkpt lat="43.527825" lon="1.477329">
        <ele>207.1</ele>
        <time>2014-03-20T13:46:56Z</time>
        <name>Merli</name>
      </trkpt>
      <trkpt lat="43.527888" lon="1.477222">
        <ele>207.7</ele>
        <time>2014-03-20T13:47:21Z</time>
      </trkpt>
      <trkpt lat="43.527950" lon="1.477093">
        <ele>207.4</ele>
        <time>2014-03-20T13:47:34Z</time>
      </trkpt>
      <trkpt lat="43.528025" lon="1.476959">
        <ele>207.9</ele>
        <time>2014-03-20T13:47:44Z</time>
      </trkpt>
      <trkpt lat="43.528097" lon="1.476813">
        <ele>208.1</ele>
        <time>2014-03-20T13:47:55Z</time>
      </trkpt>
      <trkpt lat="43.528186" lon="1.476688">
        <ele>208.1</ele>
        <time>2014-03-20T13:48:06Z</time>
      </trkpt>
      <trkpt lat="43.528253" lon="1.476582">
        <ele>208.5</ele>
        <time>2014-03-20T13:48:15Z</time>
      </trkpt>
      <trkpt lat="43.528324" lon="1.476478">
        <ele>209.0</ele>
        <time>2014-03-20T13:48:24Z</time>
      </trkpt>
      <trkpt lat="43.528379" lon="1.476356">
        <ele>209.2</ele>
        <time>2014-03-20T13:48:33Z</time>
      </trkpt>
      <trkpt lat="43.528444" lon="1.476240">
        <ele>209.5</ele>
        <time>2014-03-20T13:48:42Z</time>
      </trkpt>
      <trkpt lat="43.528515" lon="1.476110">
        <ele>209.5</ele>
        <time>2014-03-20T13:48:51Z</time>
      </trkpt>
      <trkpt lat="43.528577" lon="1.475995">
        <ele>209.5</ele>
        <time>2014-03-20T13:49:00Z</time>
      </trkpt>
      <trkpt lat="43.528628" lon="1.475881">
        <ele>209.8</ele>
        <time>2014-03-20T13:49:10Z</time>
      </trkpt>
      <trkpt lat="43.528692" lon="1.475770">
        <ele>209.7</ele>
        <time>2014-03-20T13:49:19Z</time>
      </trkpt>
      <trkpt lat="43.528767" lon="1.475662">
        <ele>209.5</ele>
        <time>2014-03-20T13:49:28Z</time>
      </trkpt>
      <trkpt lat="43.528838" lon="1.475541">
        <ele>209.8</ele>
        <time>2014-03-20T13:49:38Z</time>
      </trkpt>
      <trkpt lat="43.528906" lon="1.475447">
        <ele>209.9</ele>
        <time>2014-03-20T13:49:46Z</time>
      </trkpt>
      <trkpt lat="43.528976" lon="1.475352">
        <ele>210.4</ele>
        <time>2014-03-20T13:49:55Z</time>
      </trkpt>
      <trkpt lat="43.529030" lon="1.475254">
        <ele>210.3</ele>
        <time>2014-03-20T13:50:03Z</time>
      </trkpt>
      <trkpt lat="43.529090" lon="1.475161">
        <ele>210.4</ele>
        <time>2014-03-20T13:50:11Z</time>
      </trkpt>
      <trkpt lat="43.529145" lon="1.475071">
        <ele>210.1</ele>
        <time>2014-03-20T13:50:20Z</time>
      </trkpt>
      <trkpt lat="43.529207" lon="1.474970">
        <ele>209.8</ele>
        <time>2014-03-20T13:50:28Z</time>
      </trkpt>
      <trkpt lat="43.529268" lon="1.474865">
        <ele>210.4</ele>
        <time>2014-03-20T13:50:37Z</time>
      </trkpt>
      <trkpt lat="43.529324" lon="1.474760">
        <ele>210.9</ele>
        <time>2014-03-20T13:50:45Z</time>
      </trkpt>
      <trkpt lat="43.529360" lon="1.474639">
        <ele>211.3</ele>
        <time>2014-03-20T13:50:53Z</time>
      </trkpt>
      <trkpt lat="43.529425" lon="1.474553">
        <ele>211.4</ele>
        <time>2014-03-20T13:51:01Z</time>
      </trkpt>
      <trkpt lat="43.529499" lon="1.474436">
        <ele>211.5</ele>
        <time>2014-03-20T13:51:10Z</time>
      </trkpt>
      <trkpt lat="43.529563" lon="1.474298">
        <ele>211.8</ele>
        <time>2014-03-20T13:51:20Z</time>
      </trkpt>
      <trkpt lat="43.529639" lon="1.474181">
        <ele>212.0</ele>
        <time>2014-03-20T13:51:29Z</time>
      </trkpt>
      <trkpt lat="43.529709" lon="1.474063">
        <ele>211.9</ele>
        <time>2014-03-20T13:51:37Z</time>
      </trkpt>
      <trkpt lat="43.529777" lon="1.473951">
        <ele>211.8</ele>
        <time>2014-03-20T13:51:46Z</time>
      </trkpt>
      <trkpt lat="43.529851" lon="1.473834">
        <ele>212.0</ele>
        <time>2014-03-20T13:51:55Z</time>
      </trkpt>
      <trkpt lat="43.529914" lon="1.473751">
        <ele>213.3</ele>
        <time>2014-03-20T13:52:03Z</time>
      </trkpt>
      <trkpt lat="43.529963" lon="1.473649">
        <ele>213.4</ele>
        <time>2014-03-20T13:52:13Z</time>
      </trkpt>
      <trkpt lat="43.530006" lon="1.473546">
        <ele>213.5</ele>
        <time>2014-03-20T13:52:26Z</time>
      </trkpt>
      <trkpt lat="43.530048" lon="1.473452">
        <ele>213.8</ele>
        <time>2014-03-20T13:52:36Z</time>
      </trkpt>
      <trkpt lat="43.530108" lon="1.473345">
        <ele>214.1</ele>
        <time>2014-03-20T13:52:46Z</time>
      </trkpt>
      <trkpt lat="43.530166" lon="1.473242">
        <ele>214.2</ele>
        <time>2014-03-20T13:52:56Z</time>
      </trkpt>
      <trkpt lat="43.530220" lon="1.473140">
        <ele>214.2</ele>
        <time>2014-03-20T13:53:05Z</time>
      </trkpt>
      <trkpt lat="43.530269" lon="1.473024">
        <ele>214.1</ele>
        <time>2014-03-20T13:53:14Z</time>
      </trkpt>
      <trkpt lat="43.530317" lon="1.472916">
        <ele>214.5</ele>
        <time>2014-03-20T13:53:23Z</time>
      </trkpt>
      <trkpt lat="43.530382" lon="1.472807">
        <ele>214.2</ele>
        <time>2014-03-20T13:53:32Z</time>
      </trkpt>
      <trkpt lat="43.530432" lon="1.472690">
        <ele>213.8</ele>
        <time>2014-03-20T13:53:40Z</time>
      </trkpt>
      <trkpt lat="43.530484" lon="1.472575">
        <ele>213.6</ele>
        <time>2014-03-20T13:53:49Z</time>
      </trkpt>
      <trkpt lat="43.530536" lon="1.472460">
        <ele>213.6</ele>
        <time>2014-03-20T13:53:58Z</time>
      </trkpt>
      <trkpt lat="43.530590" lon="1.472362">
        <ele>213.4</ele>
        <time>2014-03-20T13:54:07Z</time>
      </trkpt>
      <trkpt lat="43.530639" lon="1.472254">
        <ele>213.2</ele>
        <time>2014-03-20T13:54:16Z</time>
      </trkpt>
      <trkpt lat="43.530693" lon="1.472143">
        <ele>213.1</ele>
        <time>2014-03-20T13:54:26Z</time>
      </trkpt>
      <trkpt lat="43.530741" lon="1.472026">
        <ele>212.6</ele>
        <time>2014-03-20T13:54:36Z</time>
      </trkpt>
      <trkpt lat="43.530787" lon="1.471895">
        <ele>212.2</ele>
        <time>2014-03-20T13:54:46Z</time>
      </trkpt>
      <trkpt lat="43.530845" lon="1.471784">
        <ele>211.9</ele>
        <time>2014-03-20T13:54:56Z</time>
      </trkpt>
      <trkpt lat="43.530894" lon="1.471644">
        <ele>211.4</ele>
        <time>2014-03-20T13:55:06Z</time>
      </trkpt>
      <trkpt lat="43.530939" lon="1.471548">
        <ele>211.0</ele>
        <time>2014-03-20T13:55:15Z</time>
      </trkpt>
      <trkpt lat="43.530993" lon="1.471448">
        <ele>210.6</ele>
        <time>2014-03-20T13:55:24Z</time>
      </trkpt>
      <trkpt lat="43.531038" lon="1.471316">
        <ele>209.7</ele>
        <time>2014-03-20T13:55:35Z</time>
      </trkpt>
      <trkpt lat="43.531087" lon="1.471145">
        <ele>209.3</ele>
        <time>2014-03-20T13:55:48Z</time>
      </trkpt>
      <trkpt lat="43.531144" lon="1.470983">
        <ele>209.4</ele>
        <time>2014-03-20T13:56:01Z</time>
      </trkpt>
      <trkpt lat="43.531217" lon="1.470815">
        <ele>209.4</ele>
        <time>2014-03-20T13:56:13Z</time>
      </trkpt>
      <trkpt lat="43.531319" lon="1.470753">
        <ele>209.5</ele>
        <time>2014-03-20T13:56:29Z</time>
      </trkpt>
      <trkpt lat="43.531445" lon="1.470777">
        <ele>208.4</ele>
        <time>2014-03-20T13:56:50Z</time>
      </trkpt>
      <trkpt lat="43.531569" lon="1.470787">
        <ele>208.1</ele>
        <time>2014-03-20T13:57:08Z</time>
      </trkpt>
      <trkpt lat="43.531720" lon="1.470829">
        <ele>208.1</ele>
        <time>2014-03-20T13:57:26Z</time>
      </trkpt>
      <trkpt lat="43.531837" lon="1.470850">
        <ele>208.2</ele>
        <time>2014-03-20T13:57:45Z</time>
      </trkpt>
      <trkpt lat="43.531958" lon="1.470840">
        <ele>207.3</ele>
        <time>2014-03-20T13:59:18Z</time>
      </trkpt>
      <trkpt lat="43.532062" lon="1.470810">
        <ele>206.4</ele>
        <time>2014-03-20T13:59:29Z</time>
      </trkpt>
      <trkpt lat="43.532146" lon="1.470796">
        <ele>205.1</ele>
        <time>2014-03-20T13:59:40Z</time>
      </trkpt>
      <trkpt lat="43.532244" lon="1.470799">
        <ele>205.3</ele>
        <time>2014-03-20T13:59:51Z</time>
      </trkpt>
      <trkpt lat="43.532340" lon="1.470767">
        <ele>205.1</ele>
        <time>2014-03-20T14:00:01Z</time>
      </trkpt>
      <trkpt lat="43.532428" lon="1.470731">
        <ele>205.2</ele>
        <time>2014-03-20T14:00:12Z</time>
      </trkpt>
      <trkpt lat="43.532528" lon="1.470681">
        <ele>205.3</ele>
        <time>2014-03-20T14:00:23Z</time>
      </trkpt>
      <trkpt lat="43.532626" lon="1.470635">
        <ele>205.1</ele>
        <time>2014-03-20T14:00:33Z</time>
      </trkpt>
      <trkpt lat="43.532719" lon="1.470586">
        <ele>205.4</ele>
        <time>2014-03-20T14:00:43Z</time>
      </trkpt>
      <trkpt lat="43.532813" lon="1.470557">
        <ele>205.4</ele>
        <time>2014-03-20T14:00:52Z</time>
      </trkpt>
      <trkpt lat="43.532911" lon="1.470519">
        <ele>205.5</ele>
        <time>2014-03-20T14:01:01Z</time>
      </trkpt>
      <trkpt lat="43.533009" lon="1.470473">
        <ele>206.1</ele>
        <time>2014-03-20T14:01:11Z</time>
      </trkpt>
      <trkpt lat="43.533108" lon="1.470477">
        <ele>205.8</ele>
        <time>2014-03-20T14:01:21Z</time>
      </trkpt>
      <trkpt lat="43.533215" lon="1.470446">
        <ele>206.7</ele>
        <time>2014-03-20T14:01:32Z</time>
      </trkpt>
      <trkpt lat="43.533304" lon="1.470396">
        <ele>207.4</ele>
        <time>2014-03-20T14:01:42Z</time>
      </trkpt>
      <trkpt lat="43.533388" lon="1.470342">
        <ele>207.6</ele>
        <time>2014-03-20T14:01:54Z</time>
      </trkpt>
      <trkpt lat="43.533404" lon="1.470262">
        <ele>207.1</ele>
        <time>2014-03-20T14:02:42Z</time>
      </trkpt>
      <trkpt lat="43.533422" lon="1.470113">
        <ele>206.7</ele>
        <time>2014-03-20T14:03:02Z</time>
      </trkpt>
      <trkpt lat="43.533439" lon="1.469993">
        <ele>206.4</ele>
        <time>2014-03-20T14:03:12Z</time>
      </trkpt>
      <trkpt lat="43.533451" lon="1.469872">
        <ele>206.7</ele>
        <time>2014-03-20T14:03:22Z</time>
      </trkpt>
      <trkpt lat="43.533465" lon="1.469742">
        <ele>206.9</ele>
        <time>2014-03-20T14:03:32Z</time>
      </trkpt>
      <trkpt lat="43.533550" lon="1.469642">
        <ele>207.0</ele>
        <time>2014-03-20T14:03:43Z</time>
      </trkpt>
      <trkpt lat="43.533635" lon="1.469596">
        <ele>207.6</ele>
        <time>2014-03-20T14:03:54Z</time>
      </trkpt>
      <trkpt lat="43.533729" lon="1.469608">
        <ele>208.3</ele>
        <time>2014-03-20T14:04:04Z</time>
      </trkpt>
      <trkpt lat="43.533822" lon="1.469663">
        <ele>208.6</ele>
        <time>2014-03-20T14:04:13Z</time>
      </trkpt>
      <trkpt lat="43.533847" lon="1.469789">
        <ele>211.4</ele>
        <time>2014-03-20T14:04:33Z</time>
      </trkpt>
      <trkpt lat="43.533927" lon="1.469888">
        <ele>211.6</ele>
        <time>2014-03-20T14:04:44Z</time>
      </trkpt>
      <trkpt lat="43.533883" lon="1.469842">
        <ele>211.1</ele>
        <time>2014-03-20T14:05:14Z</time>
      </trkpt>
      <trkpt lat="43.533898" lon="1.469703">
        <ele>210.2</ele>
        <time>2014-03-20T14:05:38Z</time>
        <name>La Comtesse</name>
      </trkpt>
      <trkpt lat="43.533916" lon="1.469584">
        <ele>209.5</ele>
        <time>2014-03-20T14:05:49Z</time>
      </trkpt>
      <trkpt lat="43.533982" lon="1.469485">
        <ele>209.5</ele>
        <time>2014-03-20T14:05:57Z</time>
      </trkpt>
      <trkpt lat="43.534049" lon="1.469396">
        <ele>210.2</ele>
        <time>2014-03-20T14:06:06Z</time>
      </trkpt>
      <trkpt lat="43.534125" lon="1.469311">
        <ele>210.9</ele>
        <time>2014-03-20T14:06:14Z</time>
      </trkpt>
      <trkpt lat="43.534193" lon="1.469214">
        <ele>211.7</ele>
        <time>2014-03-20T14:06:23Z</time>
      </trkpt>
      <trkpt lat="43.534268" lon="1.469129">
        <ele>212.2</ele>
        <time>2014-03-20T14:06:33Z</time>
      </trkpt>
      <trkpt lat="43.534328" lon="1.469045">
        <ele>212.5</ele>
        <time>2014-03-20T14:06:43Z</time>
      </trkpt>
      <trkpt lat="43.534388" lon="1.468929">
        <ele>213.2</ele>
        <time>2014-03-20T14:06:53Z</time>
      </trkpt>
      <trkpt lat="43.534456" lon="1.468839">
        <ele>213.7</ele>
        <time>2014-03-20T14:07:02Z</time>
      </trkpt>
      <trkpt lat="43.534520" lon="1.468735">
        <ele>214.0</ele>
        <time>2014-03-20T14:07:11Z</time>
      </trkpt>
      <trkpt lat="43.534586" lon="1.468623">
        <ele>214.2</ele>
        <time>2014-03-20T14:07:22Z</time>
      </trkpt>
      <trkpt lat="43.534649" lon="1.468501">
        <ele>214.4</ele>
        <time>2014-03-20T14:07:32Z</time>
      </trkpt>
      <trkpt lat="43.534712" lon="1.468401">
        <ele>215.2</ele>
        <time>2014-03-20T14:07:41Z</time>
      </trkpt>
      <trkpt lat="43.534773" lon="1.468294">
        <ele>216.1</ele>
        <time>2014-03-20T14:07:50Z</time>
      </trkpt>
      <trkpt lat="43.534827" lon="1.468184">
        <ele>216.2</ele>
        <time>2014-03-20T14:07:59Z</time>
      </trkpt>
      <trkpt lat="43.534892" lon="1.468089">
        <ele>216.7</ele>
        <time>2014-03-20T14:08:09Z</time>
      </trkpt>
      <trkpt lat="43.534931" lon="1.467971">
        <ele>217.0</ele>
        <time>2014-03-20T14:08:19Z</time>
      </trkpt>
      <trkpt lat="43.534989" lon="1.467853">
        <ele>217.6</ele>
        <time>2014-03-20T14:08:30Z</time>
      </trkpt>
      <trkpt lat="43.535045" lon="1.467738">
        <ele>218.2</ele>
        <time>2014-03-20T14:08:39Z</time>
      </trkpt>
      <trkpt lat="43.535098" lon="1.467615">
        <ele>217.7</ele>
        <time>2014-03-20T14:08:49Z</time>
      </trkpt>
      <trkpt lat="43.535151" lon="1.467495">
        <ele>218.8</ele>
        <time>2014-03-20T14:08:59Z</time>
      </trkpt>
      <trkpt lat="43.535202" lon="1.467390">
        <ele>219.4</ele>
        <time>2014-03-20T14:09:10Z</time>
      </trkpt>
      <trkpt lat="43.535269" lon="1.467285">
        <ele>219.6</ele>
        <time>2014-03-20T14:09:20Z</time>
      </trkpt>
      <trkpt lat="43.535334" lon="1.467189">
        <ele>219.7</ele>
        <time>2014-03-20T14:09:30Z</time>
      </trkpt>
      <trkpt lat="43.535400" lon="1.467094">
        <ele>220.3</ele>
        <time>2014-03-20T14:09:41Z</time>
      </trkpt>
      <trkpt lat="43.535424" lon="1.466968">
        <ele>219.3</ele>
        <time>2014-03-20T14:09:53Z</time>
      </trkpt>
      <trkpt lat="43.535476" lon="1.466822">
        <ele>220.2</ele>
        <time>2014-03-20T14:10:05Z</time>
      </trkpt>
      <trkpt lat="43.535524" lon="1.466685">
        <ele>220.2</ele>
        <time>2014-03-20T14:10:17Z</time>
      </trkpt>
      <trkpt lat="43.535585" lon="1.466579">
        <ele>220.3</ele>
        <time>2014-03-20T14:10:27Z</time>
      </trkpt>
      <trkpt lat="43.535636" lon="1.466469">
        <ele>220.4</ele>
        <time>2014-03-20T14:10:38Z</time>
      </trkpt>
      <trkpt lat="43.535691" lon="1.466359">
        <ele>221.0</ele>
        <time>2014-03-20T14:10:48Z</time>
      </trkpt>
      <trkpt lat="43.535753" lon="1.466250">
        <ele>220.8</ele>
        <time>2014-03-20T14:10:58Z</time>
      </trkpt>
      <trkpt lat="43.535811" lon="1.466143">
        <ele>220.5</ele>
        <time>2014-03-20T14:11:07Z</time>
      </trkpt>
      <trkpt lat="43.535869" lon="1.466033">
        <ele>220.9</ele>
        <time>2014-03-20T14:11:17Z</time>
      </trkpt>
      <trkpt lat="43.535927" lon="1.465920">
        <ele>220.6</ele>
        <time>2014-03-20T14:11:27Z</time>
      </trkpt>
      <trkpt lat="43.536000" lon="1.465793">
        <ele>221.0</ele>
        <time>2014-03-20T14:11:38Z</time>
      </trkpt>
      <trkpt lat="43.536064" lon="1.465695">
        <ele>221.4</ele>
        <time>2014-03-20T14:11:48Z</time>
      </trkpt>
      <trkpt lat="43.536112" lon="1.465558">
        <ele>221.7</ele>
        <time>2014-03-20T14:11:59Z</time>
      </trkpt>
      <trkpt lat="43.536164" lon="1.465434">
        <ele>222.2</ele>
        <time>2014-03-20T14:12:10Z</time>
      </trkpt>
      <trkpt lat="43.536218" lon="1.465301">
        <ele>222.8</ele>
        <time>2014-03-20T14:12:21Z</time>
      </trkpt>
      <trkpt lat="43.536265" lon="1.465169">
        <ele>222.9</ele>
        <time>2014-03-20T14:12:32Z</time>
      </trkpt>
      <trkpt lat="43.536298" lon="1.465005">
        <ele>223.1</ele>
        <time>2014-03-20T14:12:42Z</time>
      </trkpt>
      <trkpt lat="43.536351" lon="1.464901">
        <ele>223.3</ele>
        <time>2014-03-20T14:12:51Z</time>
      </trkpt>
      <trkpt lat="43.536421" lon="1.464825">
        <ele>223.5</ele>
        <time>2014-03-20T14:13:01Z</time>
      </trkpt>
      <trkpt lat="43.536487" lon="1.464714">
        <ele>223.8</ele>
        <time>2014-03-20T14:13:12Z</time>
      </trkpt>
      <trkpt lat="43.536542" lon="1.464608">
        <ele>224.2</ele>
        <time>2014-03-20T14:13:21Z</time>
      </trkpt>
      <trkpt lat="43.536610" lon="1.464522">
        <ele>224.6</ele>
        <time>2014-03-20T14:13:31Z</time>
      </trkpt>
      <trkpt lat="43.536690" lon="1.464395">
        <ele>224.5</ele>
        <time>2014-03-20T14:13:43Z</time>
      </trkpt>
      <trkpt lat="43.536761" lon="1.464285">
        <ele>224.7</ele>
        <time>2014-03-20T14:13:55Z</time>
      </trkpt>
      <trkpt lat="43.536839" lon="1.464156">
        <ele>225.3</ele>
        <time>2014-03-20T14:14:06Z</time>
      </trkpt>
      <trkpt lat="43.536917" lon="1.464057">
        <ele>225.6</ele>
        <time>2014-03-20T14:14:15Z</time>
      </trkpt>
      <trkpt lat="43.537003" lon="1.463990">
        <ele>225.2</ele>
        <time>2014-03-20T14:14:26Z</time>
      </trkpt>
      <trkpt lat="43.537084" lon="1.463869">
        <ele>225.4</ele>
        <time>2014-03-20T14:14:36Z</time>
      </trkpt>
      <trkpt lat="43.537166" lon="1.463793">
        <ele>225.3</ele>
        <time>2014-03-20T14:14:45Z</time>
      </trkpt>
      <trkpt lat="43.537237" lon="1.463698">
        <ele>224.9</ele>
        <time>2014-03-20T14:14:55Z</time>
      </trkpt>
      <trkpt lat="43.537307" lon="1.463567">
        <ele>224.9</ele>
        <time>2014-03-20T14:15:05Z</time>
      </trkpt>
      <trkpt lat="43.537387" lon="1.463506">
        <ele>225.3</ele>
        <time>2014-03-20T14:15:15Z</time>
      </trkpt>
      <trkpt lat="43.537469" lon="1.463445">
        <ele>225.4</ele>
        <time>2014-03-20T14:15:25Z</time>
      </trkpt>
      <trkpt lat="43.537554" lon="1.463351">
        <ele>225.3</ele>
        <time>2014-03-20T14:15:36Z</time>
      </trkpt>
      <trkpt lat="43.537650" lon="1.463275">
        <ele>226.0</ele>
        <time>2014-03-20T14:15:46Z</time>
      </trkpt>
      <trkpt lat="43.537751" lon="1.463199">
        <ele>225.7</ele>
        <time>2014-03-20T14:15:58Z</time>
      </trkpt>
      <trkpt lat="43.537852" lon="1.463111">
        <ele>225.5</ele>
        <time>2014-03-20T14:16:10Z</time>
      </trkpt>
      <trkpt lat="43.537946" lon="1.463040">
        <ele>225.6</ele>
        <time>2014-03-20T14:16:21Z</time>
      </trkpt>
      <trkpt lat="43.538061" lon="1.462966">
        <ele>225.2</ele>
        <time>2014-03-20T14:16:34Z</time>
      </trkpt>
      <trkpt lat="43.538190" lon="1.462760">
        <ele>223.9</ele>
        <time>2014-03-20T14:18:11Z</time>
      </trkpt>
      <trkpt lat="43.538252" lon="1.462635">
        <ele>224.6</ele>
        <time>2014-03-20T14:18:23Z</time>
      </trkpt>
      <trkpt lat="43.538340" lon="1.462522">
        <ele>225.3</ele>
        <time>2014-03-20T14:18:35Z</time>
      </trkpt>
      <trkpt lat="43.538434" lon="1.462439">
        <ele>225.2</ele>
        <time>2014-03-20T14:18:45Z</time>
      </trkpt>
      <trkpt lat="43.538514" lon="1.462343">
        <ele>224.9</ele>
        <time>2014-03-20T14:18:56Z</time>
      </trkpt>
      <trkpt lat="43.538604" lon="1.462251">
        <ele>225.2</ele>
        <time>2014-03-20T14:19:08Z</time>
      </trkpt>
      <trkpt lat="43.538688" lon="1.462164">
        <ele>225.6</ele>
        <time>2014-03-20T14:19:20Z</time>
      </trkpt>
      <trkpt lat="43.538781" lon="1.462084">
        <ele>225.7</ele>
        <time>2014-03-20T14:19:30Z</time>
      </trkpt>
      <trkpt lat="43.538884" lon="1.461980">
        <ele>225.6</ele>
        <time>2014-03-20T14:19:43Z</time>
      </trkpt>
      <trkpt lat="43.538975" lon="1.461843">
        <ele>226.1</ele>
        <time>2014-03-20T14:19:55Z</time>
      </trkpt>
      <trkpt lat="43.539069" lon="1.461741">
        <ele>225.8</ele>
        <time>2014-03-20T14:20:06Z</time>
      </trkpt>
      <trkpt lat="43.539163" lon="1.461634">
        <ele>226.0</ele>
        <time>2014-03-20T14:20:17Z</time>
      </trkpt>
      <trkpt lat="43.539272" lon="1.461543">
        <ele>226.4</ele>
        <time>2014-03-20T14:20:31Z</time>
      </trkpt>
      <trkpt lat="43.539351" lon="1.461616">
        <ele>226.1</ele>
        <time>2014-03-20T14:20:50Z</time>
      </trkpt>
      <trkpt lat="43.539443" lon="1.461735">
        <ele>225.1</ele>
        <time>2014-03-20T14:21:01Z</time>
      </trkpt>
      <trkpt lat="43.539543" lon="1.461867">
        <ele>224.3</ele>
        <time>2014-03-20T14:21:11Z</time>
      </trkpt>
      <trkpt lat="43.539593" lon="1.461975">
        <ele>223.6</ele>
        <time>2014-03-20T14:21:19Z</time>
      </trkpt>
      <trkpt lat="43.539696" lon="1.462038">
        <ele>222.6</ele>
        <time>2014-03-20T14:21:28Z</time>
      </trkpt>
      <trkpt lat="43.539761" lon="1.462124">
        <ele>221.6</ele>
        <time>2014-03-20T14:21:37Z</time>
      </trkpt>
      <trkpt lat="43.539829" lon="1.462222">
        <ele>221.0</ele>
        <time>2014-03-20T14:21:47Z</time>
      </trkpt>
      <trkpt lat="43.539911" lon="1.462324">
        <ele>220.2</ele>
        <time>2014-03-20T14:21:57Z</time>
      </trkpt>
      <trkpt lat="43.539959" lon="1.462457">
        <ele>219.9</ele>
        <time>2014-03-20T14:22:07Z</time>
      </trkpt>
      <trkpt lat="43.540028" lon="1.462572">
        <ele>219.8</ele>
        <time>2014-03-20T14:22:18Z</time>
      </trkpt>
      <trkpt lat="43.540103" lon="1.462687">
        <ele>219.2</ele>
        <time>2014-03-20T14:22:28Z</time>
      </trkpt>
      <trkpt lat="43.540182" lon="1.462779">
        <ele>218.8</ele>
        <time>2014-03-20T14:22:37Z</time>
      </trkpt>
      <trkpt lat="43.540281" lon="1.462848">
        <ele>218.9</ele>
        <time>2014-03-20T14:22:50Z</time>
      </trkpt>
      <trkpt lat="43.540365" lon="1.462857">
        <ele>219.5</ele>
        <time>2014-03-20T14:23:04Z</time>
      </trkpt>
      <trkpt lat="43.540452" lon="1.462736">
        <ele>219.9</ele>
        <time>2014-03-20T14:23:16Z</time>
      </trkpt>
      <trkpt lat="43.540544" lon="1.462624">
        <ele>220.4</ele>
        <time>2014-03-20T14:23:27Z</time>
      </trkpt>
      <trkpt lat="43.540625" lon="1.462510">
        <ele>220.9</ele>
        <time>2014-03-20T14:23:37Z</time>
      </trkpt>
      <trkpt lat="43.540705" lon="1.462393">
        <ele>221.5</ele>
        <time>2014-03-20T14:23:48Z</time>
      </trkpt>
      <trkpt lat="43.540755" lon="1.462279">
        <ele>221.9</ele>
        <time>2014-03-20T14:24:00Z</time>
      </trkpt>
      <trkpt lat="43.540824" lon="1.462129">
        <ele>222.4</ele>
        <time>2014-03-20T14:24:10Z</time>
      </trkpt>
      <trkpt lat="43.540900" lon="1.462018">
        <ele>222.4</ele>
        <time>2014-03-20T14:24:19Z</time>
      </trkpt>
      <trkpt lat="43.540971" lon="1.461920">
        <ele>222.7</ele>
        <time>2014-03-20T14:24:28Z</time>
      </trkpt>
      <trkpt lat="43.541038" lon="1.461830">
        <ele>223.0</ele>
        <time>2014-03-20T14:24:36Z</time>
      </trkpt>
      <trkpt lat="43.541089" lon="1.461704">
        <ele>223.3</ele>
        <time>2014-03-20T14:24:45Z</time>
      </trkpt>
      <trkpt lat="43.541136" lon="1.461594">
        <ele>223.9</ele>
        <time>2014-03-20T14:24:54Z</time>
      </trkpt>
      <trkpt lat="43.541192" lon="1.461478">
        <ele>224.6</ele>
        <time>2014-03-20T14:25:04Z</time>
      </trkpt>
      <trkpt lat="43.541257" lon="1.461352">
        <ele>224.5</ele>
        <time>2014-03-20T14:25:14Z</time>
      </trkpt>
      <trkpt lat="43.541308" lon="1.461205">
        <ele>224.4</ele>
        <time>2014-03-20T14:25:26Z</time>
      </trkpt>
      <trkpt lat="43.541379" lon="1.461066">
        <ele>224.9</ele>
        <time>2014-03-20T14:25:36Z</time>
      </trkpt>
      <trkpt lat="43.541453" lon="1.460960">
        <ele>225.3</ele>
        <time>2014-03-20T14:25:46Z</time>
      </trkpt>
      <trkpt lat="43.541514" lon="1.460850">
        <ele>225.6</ele>
        <time>2014-03-20T14:25:57Z</time>
      </trkpt>
      <trkpt lat="43.541570" lon="1.460728">
        <ele>225.7</ele>
        <time>2014-03-20T14:26:07Z</time>
      </trkpt>
      <trkpt lat="43.541618" lon="1.460599">
        <ele>226.8</ele>
        <time>2014-03-20T14:26:17Z</time>
      </trkpt>
      <trkpt lat="43.541674" lon="1.460461">
        <ele>226.4</ele>
        <time>2014-03-20T14:26:28Z</time>
      </trkpt>
      <trkpt lat="43.541717" lon="1.460310">
        <ele>226.7</ele>
        <time>2014-03-20T14:26:39Z</time>
      </trkpt>
      <trkpt lat="43.541775" lon="1.460187">
        <ele>227.3</ele>
        <time>2014-03-20T14:26:49Z</time>
      </trkpt>
      <trkpt lat="43.541838" lon="1.460063">
        <ele>227.7</ele>
        <time>2014-03-20T14:26:59Z</time>
      </trkpt>
      <trkpt lat="43.541902" lon="1.459933">
        <ele>228.0</ele>
        <time>2014-03-20T14:27:10Z</time>
      </trkpt>
      <trkpt lat="43.541943" lon="1.459796">
        <ele>227.9</ele>
        <time>2014-03-20T14:27:22Z</time>
      </trkpt>
      <trkpt lat="43.542012" lon="1.459653">
        <ele>228.2</ele>
        <time>2014-03-20T14:27:34Z</time>
      </trkpt>
      <trkpt lat="43.542064" lon="1.459525">
        <ele>228.4</ele>
        <time>2014-03-20T14:27:44Z</time>
      </trkpt>
      <trkpt lat="43.542105" lon="1.459385">
        <ele>228.0</ele>
        <time>2014-03-20T14:27:56Z</time>
      </trkpt>
      <trkpt lat="43.542134" lon="1.459233">
        <ele>228.1</ele>
        <time>2014-03-20T14:28:07Z</time>
      </trkpt>
      <trkpt lat="43.542223" lon="1.459125">
        <ele>227.9</ele>
        <time>2014-03-20T14:28:17Z</time>
      </trkpt>
      <trkpt lat="43.542288" lon="1.458991">
        <ele>227.3</ele>
        <time>2014-03-20T14:28:28Z</time>
      </trkpt>
      <trkpt lat="43.542358" lon="1.458887">
        <ele>226.7</ele>
        <time>2014-03-20T14:28:38Z</time>
      </trkpt>
      <trkpt lat="43.542418" lon="1.458767">
        <ele>226.1</ele>
        <time>2014-03-20T14:28:48Z</time>
      </trkpt>
      <trkpt lat="43.542475" lon="1.458658">
        <ele>226.1</ele>
        <time>2014-03-20T14:28:56Z</time>
      </trkpt>
      <trkpt lat="43.542539" lon="1.458575">
        <ele>225.9</ele>
        <time>2014-03-20T14:29:04Z</time>
      </trkpt>
      <trkpt lat="43.542599" lon="1.458478">
        <ele>225.2</ele>
        <time>2014-03-20T14:29:13Z</time>
      </trkpt>
      <trkpt lat="43.542645" lon="1.458361">
        <ele>224.6</ele>
        <time>2014-03-20T14:29:22Z</time>
      </trkpt>
      <trkpt lat="43.542698" lon="1.458265">
        <ele>224.8</ele>
        <time>2014-03-20T14:29:32Z</time>
      </trkpt>
      <trkpt lat="43.542767" lon="1.458153">
        <ele>224.1</ele>
        <time>2014-03-20T14:29:42Z</time>
      </trkpt>
      <trkpt lat="43.542833" lon="1.458053">
        <ele>223.7</ele>
        <time>2014-03-20T14:29:51Z</time>
      </trkpt>
      <trkpt lat="43.542885" lon="1.457914">
        <ele>224.1</ele>
        <time>2014-03-20T14:30:01Z</time>
      </trkpt>
      <trkpt lat="43.542943" lon="1.457821">
        <ele>223.7</ele>
        <time>2014-03-20T14:30:10Z</time>
      </trkpt>
      <trkpt lat="43.543012" lon="1.457731">
        <ele>224.3</ele>
        <time>2014-03-20T14:30:20Z</time>
      </trkpt>
      <trkpt lat="43.543089" lon="1.457629">
        <ele>224.4</ele>
        <time>2014-03-20T14:30:30Z</time>
      </trkpt>
      <trkpt lat="43.543168" lon="1.457534">
        <ele>224.8</ele>
        <time>2014-03-20T14:30:39Z</time>
      </trkpt>
      <trkpt lat="43.543232" lon="1.457426">
        <ele>224.7</ele>
        <time>2014-03-20T14:30:49Z</time>
      </trkpt>
      <trkpt lat="43.543286" lon="1.457321">
        <ele>224.8</ele>
        <time>2014-03-20T14:30:59Z</time>
      </trkpt>
      <trkpt lat="43.543353" lon="1.457222">
        <ele>224.9</ele>
        <time>2014-03-20T14:31:08Z</time>
      </trkpt>
      <trkpt lat="43.543379" lon="1.457075">
        <ele>224.7</ele>
        <time>2014-03-20T14:31:17Z</time>
        <name>Peyre d Escale</name>
      </trkpt>
      <trkpt lat="43.543353" lon="1.456979">
        <ele>225.4</ele>
        <time>2014-03-20T14:31:27Z</time>
      </trkpt>
      <trkpt lat="43.543259" lon="1.456913">
        <ele>225.6</ele>
        <time>2014-03-20T14:31:38Z</time>
      </trkpt>
      <trkpt lat="43.543178" lon="1.456826">
        <ele>226.1</ele>
        <time>2014-03-20T14:31:48Z</time>
      </trkpt>
      <trkpt lat="43.543108" lon="1.456735">
        <ele>226.4</ele>
        <time>2014-03-20T14:31:57Z</time>
      </trkpt>
      <trkpt lat="43.543018" lon="1.456657">
        <ele>227.3</ele>
        <time>2014-03-20T14:32:08Z</time>
      </trkpt>
      <trkpt lat="43.542933" lon="1.456600">
        <ele>227.4</ele>
        <time>2014-03-20T14:32:17Z</time>
      </trkpt>
      <trkpt lat="43.542852" lon="1.456526">
        <ele>227.7</ele>
        <time>2014-03-20T14:32:27Z</time>
      </trkpt>
      <trkpt lat="43.542770" lon="1.456465">
        <ele>228.4</ele>
        <time>2014-03-20T14:32:37Z</time>
      </trkpt>
      <trkpt lat="43.542690" lon="1.456392">
        <ele>229.4</ele>
        <time>2014-03-20T14:32:47Z</time>
      </trkpt>
      <trkpt lat="43.542605" lon="1.456325">
        <ele>230.6</ele>
        <time>2014-03-20T14:32:58Z</time>
      </trkpt>
      <trkpt lat="43.542527" lon="1.456260">
        <ele>231.3</ele>
        <time>2014-03-20T14:33:07Z</time>
      </trkpt>
      <trkpt lat="43.542449" lon="1.456185">
        <ele>232.7</ele>
        <time>2014-03-20T14:33:17Z</time>
      </trkpt>
      <trkpt lat="43.542363" lon="1.456110">
        <ele>233.4</ele>
        <time>2014-03-20T14:33:27Z</time>
      </trkpt>
      <trkpt lat="43.542293" lon="1.456029">
        <ele>234.3</ele>
        <time>2014-03-20T14:33:37Z</time>
      </trkpt>
      <trkpt lat="43.542229" lon="1.455905">
        <ele>235.9</ele>
        <time>2014-03-20T14:33:49Z</time>
      </trkpt>
      <trkpt lat="43.542168" lon="1.455801">
        <ele>238.2</ele>
        <time>2014-03-20T14:34:02Z</time>
      </trkpt>
      <trkpt lat="43.542115" lon="1.455684">
        <ele>239.4</ele>
        <time>2014-03-20T14:34:17Z</time>
      </trkpt>
      <trkpt lat="43.542027" lon="1.455573">
        <ele>240.9</ele>
        <time>2014-03-20T14:34:33Z</time>
      </trkpt>
      <trkpt lat="43.541931" lon="1.455513">
        <ele>242.2</ele>
        <time>2014-03-20T14:34:45Z</time>
      </trkpt>
      <trkpt lat="43.541850" lon="1.455430">
        <ele>243.4</ele>
        <time>2014-03-20T14:34:56Z</time>
      </trkpt>
      <trkpt lat="43.541774" lon="1.455345">
        <ele>244.8</ele>
        <time>2014-03-20T14:35:07Z</time>
      </trkpt>
      <trkpt lat="43.541697" lon="1.455274">
        <ele>245.5</ele>
        <time>2014-03-20T14:35:17Z</time>
      </trkpt>
      <trkpt lat="43.541606" lon="1.455203">
        <ele>246.7</ele>
        <time>2014-03-20T14:35:28Z</time>
      </trkpt>
      <trkpt lat="43.541513" lon="1.455160">
        <ele>247.0</ele>
        <time>2014-03-20T14:35:37Z</time>
      </trkpt>
      <trkpt lat="43.541420" lon="1.455121">
        <ele>248.2</ele>
        <time>2014-03-20T14:35:48Z</time>
      </trkpt>
      <trkpt lat="43.541340" lon="1.455032">
        <ele>248.6</ele>
        <time>2014-03-20T14:35:59Z</time>
      </trkpt>
      <trkpt lat="43.541242" lon="1.454975">
        <ele>249.5</ele>
        <time>2014-03-20T14:36:11Z</time>
      </trkpt>
      <trkpt lat="43.541174" lon="1.454910">
        <ele>250.1</ele>
        <time>2014-03-20T14:36:21Z</time>
      </trkpt>
      <trkpt lat="43.541098" lon="1.454836">
        <ele>251.4</ele>
        <time>2014-03-20T14:36:31Z</time>
      </trkpt>
      <trkpt lat="43.541012" lon="1.454766">
        <ele>251.9</ele>
        <time>2014-03-20T14:36:42Z</time>
      </trkpt>
      <trkpt lat="43.540931" lon="1.454700">
        <ele>252.2</ele>
        <time>2014-03-20T14:36:52Z</time>
      </trkpt>
      <trkpt lat="43.540837" lon="1.454646">
        <ele>252.5</ele>
        <time>2014-03-20T14:37:03Z</time>
      </trkpt>
      <trkpt lat="43.540737" lon="1.454622">
        <ele>252.9</ele>
        <time>2014-03-20T14:37:14Z</time>
      </trkpt>
      <trkpt lat="43.540642" lon="1.454661">
        <ele>253.0</ele>
        <time>2014-03-20T14:37:24Z</time>
      </trkpt>
      <trkpt lat="43.540552" lon="1.454708">
        <ele>253.4</ele>
        <time>2014-03-20T14:37:36Z</time>
      </trkpt>
      <trkpt lat="43.540525" lon="1.454736">
        <ele>252.4</ele>
        <time>2014-03-20T14:40:06Z</time>
      </trkpt>
      <trkpt lat="43.540403" lon="1.454774">
        <ele>252.4</ele>
        <time>2014-03-20T14:40:57Z</time>
      </trkpt>
      <trkpt lat="43.540301" lon="1.454821">
        <ele>252.2</ele>
        <time>2014-03-20T14:41:10Z</time>
      </trkpt>
      <trkpt lat="43.540189" lon="1.454839">
        <ele>250.5</ele>
        <time>2014-03-20T14:41:23Z</time>
      </trkpt>
      <trkpt lat="43.540090" lon="1.454818">
        <ele>249.6</ele>
        <time>2014-03-20T14:41:37Z</time>
      </trkpt>
      <trkpt lat="43.539982" lon="1.454823">
        <ele>247.4</ele>
        <time>2014-03-20T14:41:49Z</time>
      </trkpt>
      <trkpt lat="43.539892" lon="1.454828">
        <ele>246.0</ele>
        <time>2014-03-20T14:41:59Z</time>
      </trkpt>
      <trkpt lat="43.539794" lon="1.454845">
        <ele>244.6</ele>
        <time>2014-03-20T14:42:11Z</time>
      </trkpt>
      <trkpt lat="43.539677" lon="1.454910">
        <ele>243.1</ele>
        <time>2014-03-20T14:42:24Z</time>
      </trkpt>
      <trkpt lat="43.539556" lon="1.454979">
        <ele>241.9</ele>
        <time>2014-03-20T14:42:38Z</time>
      </trkpt>
      <trkpt lat="43.539460" lon="1.455086">
        <ele>240.5</ele>
        <time>2014-03-20T14:42:53Z</time>
      </trkpt>
      <trkpt lat="43.539393" lon="1.455238">
        <ele>241.1</ele>
        <time>2014-03-20T14:43:07Z</time>
      </trkpt>
      <trkpt lat="43.539369" lon="1.455368">
        <ele>241.9</ele>
        <time>2014-03-20T14:43:23Z</time>
      </trkpt>
      <trkpt lat="43.539288" lon="1.455450">
        <ele>242.2</ele>
        <time>2014-03-20T14:43:38Z</time>
      </trkpt>
      <trkpt lat="43.539205" lon="1.455536">
        <ele>242.6</ele>
        <time>2014-03-20T14:43:49Z</time>
      </trkpt>
      <trkpt lat="43.539110" lon="1.455636">
        <ele>242.7</ele>
        <time>2014-03-20T14:44:01Z</time>
      </trkpt>
      <trkpt lat="43.539010" lon="1.455743">
        <ele>242.1</ele>
        <time>2014-03-20T14:44:12Z</time>
      </trkpt>
      <trkpt lat="43.538916" lon="1.455842">
        <ele>241.4</ele>
        <time>2014-03-20T14:44:25Z</time>
      </trkpt>
      <trkpt lat="43.538944" lon="1.455940">
        <ele>242.4</ele>
        <time>2014-03-20T14:44:46Z</time>
      </trkpt>
      <trkpt lat="43.538894" lon="1.456067">
        <ele>244.5</ele>
        <time>2014-03-20T14:45:01Z</time>
      </trkpt>
      <trkpt lat="43.538799" lon="1.456143">
        <ele>243.3</ele>
        <time>2014-03-20T14:45:14Z</time>
      </trkpt>
      <trkpt lat="43.538695" lon="1.456281">
        <ele>242.4</ele>
        <time>2014-03-20T14:45:27Z</time>
      </trkpt>
      <trkpt lat="43.538645" lon="1.456418">
        <ele>241.8</ele>
        <time>2014-03-20T14:45:40Z</time>
      </trkpt>
      <trkpt lat="43.538609" lon="1.456515">
        <ele>243.3</ele>
        <time>2014-03-20T14:47:18Z</time>
      </trkpt>
      <trkpt lat="43.538528" lon="1.456617">
        <ele>243.0</ele>
        <time>2014-03-20T14:47:29Z</time>
      </trkpt>
      <trkpt lat="43.538437" lon="1.456702">
        <ele>243.0</ele>
        <time>2014-03-20T14:47:39Z</time>
      </trkpt>
      <trkpt lat="43.538355" lon="1.456788">
        <ele>242.3</ele>
        <time>2014-03-20T14:47:53Z</time>
      </trkpt>
      <trkpt lat="43.538251" lon="1.456918">
        <ele>242.1</ele>
        <time>2014-03-20T14:48:08Z</time>
      </trkpt>
      <trkpt lat="43.538128" lon="1.457048">
        <ele>241.8</ele>
        <time>2014-03-20T14:48:24Z</time>
      </trkpt>
      <trkpt lat="43.538002" lon="1.457147">
        <ele>241.2</ele>
        <time>2014-03-20T14:48:39Z</time>
      </trkpt>
      <trkpt lat="43.537869" lon="1.457286">
        <ele>239.7</ele>
        <time>2014-03-20T14:48:55Z</time>
      </trkpt>
      <trkpt lat="43.537724" lon="1.457427">
        <ele>239.7</ele>
        <time>2014-03-20T14:49:11Z</time>
      </trkpt>
      <trkpt lat="43.537603" lon="1.457532">
        <ele>238.6</ele>
        <time>2014-03-20T14:49:25Z</time>
      </trkpt>
      <trkpt lat="43.537459" lon="1.457641">
        <ele>237.8</ele>
        <time>2014-03-20T14:49:40Z</time>
      </trkpt>
      <trkpt lat="43.537335" lon="1.457738">
        <ele>236.1</ele>
        <time>2014-03-20T14:49:55Z</time>
      </trkpt>
      <trkpt lat="43.537205" lon="1.457829">
        <ele>235.6</ele>
        <time>2014-03-20T14:50:10Z</time>
      </trkpt>
      <trkpt lat="43.537056" lon="1.457942">
        <ele>234.4</ele>
        <time>2014-03-20T14:50:24Z</time>
      </trkpt>
      <trkpt lat="43.536903" lon="1.458020">
        <ele>233.2</ele>
        <time>2014-03-20T14:50:39Z</time>
      </trkpt>
      <trkpt lat="43.536789" lon="1.458067">
        <ele>232.4</ele>
        <time>2014-03-20T14:50:52Z</time>
      </trkpt>
      <trkpt lat="43.536659" lon="1.458144">
        <ele>230.8</ele>
        <time>2014-03-20T14:51:07Z</time>
      </trkpt>
      <trkpt lat="43.536520" lon="1.458243">
        <ele>229.3</ele>
        <time>2014-03-20T14:51:21Z</time>
      </trkpt>
      <trkpt lat="43.536392" lon="1.458330">
        <ele>228.3</ele>
        <time>2014-03-20T14:51:36Z</time>
      </trkpt>
      <trkpt lat="43.536251" lon="1.458422">
        <ele>226.9</ele>
        <time>2014-03-20T14:51:52Z</time>
      </trkpt>
      <trkpt lat="43.536102" lon="1.458525">
        <ele>224.8</ele>
        <time>2014-03-20T14:52:08Z</time>
      </trkpt>
      <trkpt lat="43.535933" lon="1.458646">
        <ele>222.7</ele>
        <time>2014-03-20T14:52:25Z</time>
      </trkpt>
      <trkpt lat="43.535794" lon="1.458727">
        <ele>221.0</ele>
        <time>2014-03-20T14:52:43Z</time>
      </trkpt>
      <trkpt lat="43.535643" lon="1.458816">
        <ele>219.5</ele>
        <time>2014-03-20T14:52:59Z</time>
      </trkpt>
      <trkpt lat="43.535480" lon="1.458876">
        <ele>218.2</ele>
        <time>2014-03-20T14:53:13Z</time>
      </trkpt>
      <trkpt lat="43.535345" lon="1.458909">
        <ele>215.6</ele>
        <time>2014-03-20T14:53:28Z</time>
      </trkpt>
      <trkpt lat="43.535200" lon="1.458983">
        <ele>213.6</ele>
        <time>2014-03-20T14:53:42Z</time>
      </trkpt>
      <trkpt lat="43.535098" lon="1.459028">
        <ele>211.8</ele>
        <time>2014-03-20T14:53:58Z</time>
      </trkpt>
      <trkpt lat="43.534974" lon="1.459096">
        <ele>209.4</ele>
        <time>2014-03-20T14:54:15Z</time>
      </trkpt>
      <trkpt lat="43.534850" lon="1.459195">
        <ele>207.4</ele>
        <time>2014-03-20T14:54:28Z</time>
      </trkpt>
      <trkpt lat="43.534742" lon="1.459248">
        <ele>205.5</ele>
        <time>2014-03-20T14:54:42Z</time>
      </trkpt>
      <trkpt lat="43.534609" lon="1.459384">
        <ele>203.0</ele>
        <time>2014-03-20T14:54:57Z</time>
      </trkpt>
      <trkpt lat="43.534499" lon="1.459491">
        <ele>201.2</ele>
        <time>2014-03-20T14:55:11Z</time>
      </trkpt>
      <trkpt lat="43.534370" lon="1.459556">
        <ele>199.1</ele>
        <time>2014-03-20T14:55:27Z</time>
      </trkpt>
      <trkpt lat="43.534245" lon="1.459652">
        <ele>197.1</ele>
        <time>2014-03-20T14:55:43Z</time>
      </trkpt>
      <trkpt lat="43.534124" lon="1.459781">
        <ele>195.0</ele>
        <time>2014-03-20T14:56:00Z</time>
      </trkpt>
      <trkpt lat="43.534012" lon="1.459877">
        <ele>193.4</ele>
        <time>2014-03-20T14:56:15Z</time>
      </trkpt>
      <trkpt lat="43.533892" lon="1.459969">
        <ele>192.0</ele>
        <time>2014-03-20T14:56:28Z</time>
      </trkpt>
      <trkpt lat="43.533741" lon="1.460094">
        <ele>189.5</ele>
        <time>2014-03-20T14:56:43Z</time>
      </trkpt>
      <trkpt lat="43.533615" lon="1.460165">
        <ele>188.2</ele>
        <time>2014-03-20T14:56:58Z</time>
      </trkpt>
      <trkpt lat="43.533486" lon="1.460315">
        <ele>186.5</ele>
        <time>2014-03-20T14:57:13Z</time>
      </trkpt>
      <trkpt lat="43.533411" lon="1.460401">
        <ele>185.4</ele>
        <time>2014-03-20T14:57:31Z</time>
      </trkpt>
      <trkpt lat="43.533293" lon="1.460418">
        <ele>182.7</ele>
        <time>2014-03-20T14:57:47Z</time>
      </trkpt>
      <trkpt lat="43.533184" lon="1.460494">
        <ele>181.4</ele>
        <time>2014-03-20T14:58:05Z</time>
      </trkpt>
      <trkpt lat="43.533120" lon="1.460648">
        <ele>181.0</ele>
        <time>2014-03-20T14:58:20Z</time>
      </trkpt>
      <trkpt lat="43.533010" lon="1.460930">
        <ele>181.0</ele>
        <time>2014-03-20T14:58:35Z</time>
      </trkpt>
      <trkpt lat="43.532933" lon="1.461118">
        <ele>179.8</ele>
        <time>2014-03-20T14:58:51Z</time>
      </trkpt>
      <trkpt lat="43.532853" lon="1.461223">
        <ele>179.3</ele>
        <time>2014-03-20T14:59:08Z</time>
      </trkpt>
      <trkpt lat="43.532786" lon="1.461360">
        <ele>179.0</ele>
        <time>2014-03-20T14:59:19Z</time>
        <name>Coustalas</name>
      </trkpt>
      <trkpt lat="43.532762" lon="1.461512">
        <ele>179.5</ele>
        <time>2014-03-20T14:59:28Z</time>
      </trkpt>
      <trkpt lat="43.532738" lon="1.461643">
        <ele>179.6</ele>
        <time>2014-03-20T14:59:36Z</time>
      </trkpt>
      <trkpt lat="43.532717" lon="1.461776">
        <ele>179.8</ele>
        <time>2014-03-20T14:59:45Z</time>
      </trkpt>
      <trkpt lat="43.532679" lon="1.461930">
        <ele>180.2</ele>
        <time>2014-03-20T14:59:55Z</time>
      </trkpt>
      <trkpt lat="43.532658" lon="1.462075">
        <ele>180.5</ele>
        <time>2014-03-20T15:00:05Z</time>
      </trkpt>
      <trkpt lat="43.532638" lon="1.462216">
        <ele>181.3</ele>
        <time>2014-03-20T15:00:15Z</time>
      </trkpt>
      <trkpt lat="43.532620" lon="1.462376">
        <ele>181.5</ele>
        <time>2014-03-20T15:00:24Z</time>
      </trkpt>
      <trkpt lat="43.532606" lon="1.462523">
        <ele>181.8</ele>
        <time>2014-03-20T15:00:33Z</time>
      </trkpt>
      <trkpt lat="43.532584" lon="1.462649">
        <ele>182.2</ele>
        <time>2014-03-20T15:00:41Z</time>
      </trkpt>
      <trkpt lat="43.532569" lon="1.462802">
        <ele>182.6</ele>
        <time>2014-03-20T15:00:50Z</time>
      </trkpt>
      <trkpt lat="43.532557" lon="1.462931">
        <ele>182.9</ele>
        <time>2014-03-20T15:00:59Z</time>
      </trkpt>
      <trkpt lat="43.532583" lon="1.463084">
        <ele>183.1</ele>
        <time>2014-03-20T15:01:09Z</time>
      </trkpt>
      <trkpt lat="43.532577" lon="1.463257">
        <ele>183.5</ele>
        <time>2014-03-20T15:01:20Z</time>
      </trkpt>
      <trkpt lat="43.532529" lon="1.463419">
        <ele>183.8</ele>
        <time>2014-03-20T15:01:30Z</time>
      </trkpt>
      <trkpt lat="43.532480" lon="1.463567">
        <ele>183.8</ele>
        <time>2014-03-20T15:01:41Z</time>
      </trkpt>
      <trkpt lat="43.532444" lon="1.463739">
        <ele>183.7</ele>
        <time>2014-03-20T15:01:52Z</time>
      </trkpt>
      <trkpt lat="43.532413" lon="1.463879">
        <ele>183.9</ele>
        <time>2014-03-20T15:02:01Z</time>
      </trkpt>
      <trkpt lat="43.532351" lon="1.463974">
        <ele>184.1</ele>
        <time>2014-03-20T15:02:11Z</time>
      </trkpt>
      <trkpt lat="43.532242" lon="1.464034">
        <ele>184.3</ele>
        <time>2014-03-20T15:02:20Z</time>
      </trkpt>
      <trkpt lat="43.532139" lon="1.464060">
        <ele>185.3</ele>
        <time>2014-03-20T15:02:34Z</time>
      </trkpt>
      <trkpt lat="43.532095" lon="1.463942">
        <ele>184.7</ele>
        <time>2014-03-20T15:02:58Z</time>
      </trkpt>
      <trkpt lat="43.532025" lon="1.463857">
        <ele>185.7</ele>
        <time>2014-03-20T15:03:09Z</time>
      </trkpt>
      <trkpt lat="43.531912" lon="1.463850">
        <ele>183.8</ele>
        <time>2014-03-20T15:03:21Z</time>
      </trkpt>
      <trkpt lat="43.531792" lon="1.463895">
        <ele>183.5</ele>
        <time>2014-03-20T15:03:32Z</time>
      </trkpt>
      <trkpt lat="43.531672" lon="1.463935">
        <ele>183.1</ele>
        <time>2014-03-20T15:03:42Z</time>
      </trkpt>
      <trkpt lat="43.531571" lon="1.463970">
        <ele>182.9</ele>
        <time>2014-03-20T15:03:58Z</time>
      </trkpt>
      <trkpt lat="43.531447" lon="1.463990">
        <ele>182.9</ele>
        <time>2014-03-20T15:04:09Z</time>
      </trkpt>
      <trkpt lat="43.531333" lon="1.464020">
        <ele>183.3</ele>
        <time>2014-03-20T15:04:20Z</time>
      </trkpt>
      <trkpt lat="43.531210" lon="1.464058">
        <ele>183.1</ele>
        <time>2014-03-20T15:04:30Z</time>
      </trkpt>
      <trkpt lat="43.531096" lon="1.464085">
        <ele>183.2</ele>
        <time>2014-03-20T15:04:41Z</time>
      </trkpt>
      <trkpt lat="43.530986" lon="1.464128">
        <ele>184.1</ele>
        <time>2014-03-20T15:04:54Z</time>
      </trkpt>
      <trkpt lat="43.530852" lon="1.464146">
        <ele>185.1</ele>
        <time>2014-03-20T15:05:07Z</time>
      </trkpt>
      <trkpt lat="43.530735" lon="1.464149">
        <ele>185.4</ele>
        <time>2014-03-20T15:05:19Z</time>
      </trkpt>
      <trkpt lat="43.530631" lon="1.464135">
        <ele>185.9</ele>
        <time>2014-03-20T15:05:30Z</time>
      </trkpt>
      <trkpt lat="43.530497" lon="1.464138">
        <ele>186.0</ele>
        <time>2014-03-20T15:05:43Z</time>
      </trkpt>
      <trkpt lat="43.530377" lon="1.464165">
        <ele>186.0</ele>
        <time>2014-03-20T15:05:55Z</time>
      </trkpt>
      <trkpt lat="43.530233" lon="1.464181">
        <ele>186.3</ele>
        <time>2014-03-20T15:06:06Z</time>
      </trkpt>
      <trkpt lat="43.530131" lon="1.464155">
        <ele>186.8</ele>
        <time>2014-03-20T15:06:17Z</time>
      </trkpt>
      <trkpt lat="43.530026" lon="1.464188">
        <ele>186.7</ele>
        <time>2014-03-20T15:06:28Z</time>
      </trkpt>
      <trkpt lat="43.529905" lon="1.464181">
        <ele>186.8</ele>
        <time>2014-03-20T15:06:42Z</time>
      </trkpt>
      <trkpt lat="43.529730" lon="1.464142">
        <ele>186.7</ele>
        <time>2014-03-20T15:06:58Z</time>
      </trkpt>
      <trkpt lat="43.529682" lon="1.464178">
        <ele>187.0</ele>
        <time>2014-03-20T15:07:37Z</time>
      </trkpt>
      <trkpt lat="43.529534" lon="1.464184">
        <ele>187.5</ele>
        <time>2014-03-20T15:07:51Z</time>
      </trkpt>
      <trkpt lat="43.529375" lon="1.464164">
        <ele>187.9</ele>
        <time>2014-03-20T15:08:06Z</time>
      </trkpt>
      <trkpt lat="43.529255" lon="1.464177">
        <ele>187.8</ele>
        <time>2014-03-20T15:08:24Z</time>
      </trkpt>
      <trkpt lat="43.529113" lon="1.464192">
        <ele>187.5</ele>
        <time>2014-03-20T15:08:38Z</time>
      </trkpt>
      <trkpt lat="43.528991" lon="1.464235">
        <ele>188.0</ele>
        <time>2014-03-20T15:08:51Z</time>
      </trkpt>
      <trkpt lat="43.528833" lon="1.464250">
        <ele>188.9</ele>
        <time>2014-03-20T15:09:03Z</time>
      </trkpt>
      <trkpt lat="43.528781" lon="1.464393">
        <ele>188.4</ele>
        <time>2014-03-20T15:09:17Z</time>
      </trkpt>
      <trkpt lat="43.528799" lon="1.464593">
        <ele>188.1</ele>
        <time>2014-03-20T15:09:30Z</time>
      </trkpt>
      <trkpt lat="43.528761" lon="1.464801">
        <ele>188.9</ele>
        <time>2014-03-20T15:09:49Z</time>
      </trkpt>
      <trkpt lat="43.528784" lon="1.464826">
        <ele>189.2</ele>
        <time>2014-03-20T15:10:30Z</time>
      </trkpt>
      <trkpt lat="43.528780" lon="1.464919">
        <ele>188.9</ele>
        <time>2014-03-20T15:11:08Z</time>
        <name>Durand</name>
      </trkpt>
      <trkpt lat="43.528707" lon="1.464907">
        <ele>189.4</ele>
        <time>2014-03-20T15:12:42Z</time>
      </trkpt>
      <trkpt lat="43.528672" lon="1.464902">
        <ele>189.6</ele>
        <time>2014-03-20T15:13:05Z</time>
      </trkpt>
      <trkpt lat="43.528563" lon="1.464953">
        <ele>190.0</ele>
        <time>2014-03-20T15:13:19Z</time>
      </trkpt>
      <trkpt lat="43.528435" lon="1.464952">
        <ele>191.3</ele>
        <time>2014-03-20T15:13:34Z</time>
      </trkpt>
      <trkpt lat="43.528313" lon="1.464991">
        <ele>191.0</ele>
        <time>2014-03-20T15:13:48Z</time>
      </trkpt>
      <trkpt lat="43.528194" lon="1.465112">
        <ele>190.2</ele>
        <time>2014-03-20T15:14:02Z</time>
      </trkpt>
      <trkpt lat="43.528080" lon="1.465205">
        <ele>191.3</ele>
        <time>2014-03-20T15:14:16Z</time>
      </trkpt>
      <trkpt lat="43.527937" lon="1.465244">
        <ele>190.9</ele>
        <time>2014-03-20T15:14:31Z</time>
      </trkpt>
      <trkpt lat="43.527794" lon="1.465309">
        <ele>191.3</ele>
        <time>2014-03-20T15:14:47Z</time>
      </trkpt>
      <trkpt lat="43.527641" lon="1.465329">
        <ele>191.9</ele>
        <time>2014-03-20T15:15:03Z</time>
      </trkpt>
      <trkpt lat="43.527485" lon="1.465377">
        <ele>193.6</ele>
        <time>2014-03-20T15:15:21Z</time>
      </trkpt>
      <trkpt lat="43.527349" lon="1.465391">
        <ele>193.4</ele>
        <time>2014-03-20T15:15:38Z</time>
      </trkpt>
      <trkpt lat="43.527202" lon="1.465420">
        <ele>193.1</ele>
        <time>2014-03-20T15:15:54Z</time>
      </trkpt>
      <trkpt lat="43.527084" lon="1.465345">
        <ele>192.0</ele>
        <time>2014-03-20T15:16:13Z</time>
      </trkpt>
      <trkpt lat="43.527043" lon="1.465346">
        <ele>191.7</ele>
        <time>2014-03-20T15:16:39Z</time>
      </trkpt>
      <trkpt lat="43.526970" lon="1.465237">
        <ele>192.2</ele>
        <time>2014-03-20T15:16:58Z</time>
      </trkpt>
      <trkpt lat="43.526863" lon="1.465020">
        <ele>191.9</ele>
        <time>2014-03-20T15:17:18Z</time>
      </trkpt>
      <trkpt lat="43.526733" lon="1.464830">
        <ele>192.2</ele>
        <time>2014-03-20T15:17:38Z</time>
      </trkpt>
      <trkpt lat="43.526588" lon="1.464716">
        <ele>192.1</ele>
        <time>2014-03-20T15:17:54Z</time>
      </trkpt>
      <trkpt lat="43.526410" lon="1.464676">
        <ele>193.5</ele>
        <time>2014-03-20T15:18:11Z</time>
      </trkpt>
      <trkpt lat="43.526244" lon="1.464649">
        <ele>194.7</ele>
        <time>2014-03-20T15:18:30Z</time>
      </trkpt>
      <trkpt lat="43.526122" lon="1.464644">
        <ele>194.9</ele>
        <time>2014-03-20T15:18:50Z</time>
      </trkpt>
      <trkpt lat="43.526017" lon="1.464601">
        <ele>194.0</ele>
        <time>2014-03-20T15:19:07Z</time>
      </trkpt>
      <trkpt lat="43.525930" lon="1.464500">
        <ele>194.7</ele>
        <time>2014-03-20T15:19:20Z</time>
      </trkpt>
      <trkpt lat="43.525902" lon="1.464407">
        <ele>195.0</ele>
        <time>2014-03-20T15:19:48Z</time>
      </trkpt>
      <trkpt lat="43.525850" lon="1.464411">
        <ele>193.5</ele>
        <time>2014-03-20T15:20:10Z</time>
      </trkpt>
      <trkpt lat="43.525817" lon="1.464428">
        <ele>194.9</ele>
        <time>2014-03-20T15:20:36Z</time>
      </trkpt>
      <trkpt lat="43.525761" lon="1.464432">
        <ele>197.4</ele>
        <time>2014-03-20T15:21:28Z</time>
      </trkpt>
      <trkpt lat="43.525655" lon="1.464498">
        <ele>196.8</ele>
        <time>2014-03-20T15:21:48Z</time>
      </trkpt>
      <trkpt lat="43.525540" lon="1.464608">
        <ele>198.4</ele>
        <time>2014-03-20T15:22:07Z</time>
      </trkpt>
      <trkpt lat="43.525412" lon="1.464650">
        <ele>200.5</ele>
        <time>2014-03-20T15:22:28Z</time>
      </trkpt>
      <trkpt lat="43.525274" lon="1.464607">
        <ele>199.8</ele>
        <time>2014-03-20T15:22:47Z</time>
      </trkpt>
      <trkpt lat="43.525108" lon="1.464622">
        <ele>198.9</ele>
        <time>2014-03-20T15:23:04Z</time>
      </trkpt>
      <trkpt lat="43.524956" lon="1.464651">
        <ele>200.6</ele>
        <time>2014-03-20T15:23:21Z</time>
      </trkpt>
      <trkpt lat="43.524764" lon="1.464666">
        <ele>200.5</ele>
        <time>2014-03-20T15:23:36Z</time>
      </trkpt>
      <trkpt lat="43.524687" lon="1.464808">
        <ele>200.0</ele>
        <time>2014-03-20T15:23:49Z</time>
      </trkpt>
      <trkpt lat="43.524597" lon="1.464936">
        <ele>201.5</ele>
        <time>2014-03-20T15:24:02Z</time>
      </trkpt>
      <trkpt lat="43.524499" lon="1.465026">
        <ele>201.8</ele>
        <time>2014-03-20T15:24:13Z</time>
      </trkpt>
      <trkpt lat="43.524399" lon="1.465074">
        <ele>201.7</ele>
        <time>2014-03-20T15:24:24Z</time>
      </trkpt>
      <trkpt lat="43.524291" lon="1.465122">
        <ele>202.1</ele>
        <time>2014-03-20T15:24:36Z</time>
      </trkpt>
      <trkpt lat="43.524183" lon="1.465139">
        <ele>202.2</ele>
        <time>2014-03-20T15:24:47Z</time>
      </trkpt>
      <trkpt lat="43.524080" lon="1.465125">
        <ele>202.5</ele>
        <time>2014-03-20T15:25:00Z</time>
      </trkpt>
      <trkpt lat="43.523982" lon="1.465115">
        <ele>202.5</ele>
        <time>2014-03-20T15:25:51Z</time>
      </trkpt>
      <trkpt lat="43.523868" lon="1.465140">
        <ele>202.7</ele>
        <time>2014-03-20T15:26:01Z</time>
      </trkpt>
      <trkpt lat="43.523756" lon="1.465164">
        <ele>202.8</ele>
        <time>2014-03-20T15:26:16Z</time>
      </trkpt>
      <trkpt lat="43.523622" lon="1.465200">
        <ele>202.5</ele>
        <time>2014-03-20T15:26:30Z</time>
      </trkpt>
      <trkpt lat="43.523519" lon="1.465324">
        <ele>203.1</ele>
        <time>2014-03-20T15:26:44Z</time>
      </trkpt>
      <trkpt lat="43.523393" lon="1.465440">
        <ele>203.2</ele>
        <time>2014-03-20T15:26:59Z</time>
      </trkpt>
      <trkpt lat="43.523269" lon="1.465541">
        <ele>203.8</ele>
        <time>2014-03-20T15:27:15Z</time>
      </trkpt>
      <trkpt lat="43.523105" lon="1.465551">
        <ele>204.1</ele>
        <time>2014-03-20T15:27:32Z</time>
      </trkpt>
      <trkpt lat="43.522977" lon="1.465639">
        <ele>204.4</ele>
        <time>2014-03-20T15:27:48Z</time>
      </trkpt>
      <trkpt lat="43.522864" lon="1.465768">
        <ele>205.4</ele>
        <time>2014-03-20T15:28:03Z</time>
      </trkpt>
      <trkpt lat="43.522735" lon="1.465822">
        <ele>205.5</ele>
        <time>2014-03-20T15:28:21Z</time>
      </trkpt>
      <trkpt lat="43.522629" lon="1.465952">
        <ele>205.8</ele>
        <time>2014-03-20T15:28:39Z</time>
      </trkpt>
      <trkpt lat="43.522502" lon="1.466043">
        <ele>205.5</ele>
        <time>2014-03-20T15:28:56Z</time>
      </trkpt>
      <trkpt lat="43.522376" lon="1.466144">
        <ele>206.6</ele>
        <time>2014-03-20T15:29:13Z</time>
      </trkpt>
      <trkpt lat="43.522256" lon="1.466214">
        <ele>206.4</ele>
        <time>2014-03-20T15:29:27Z</time>
      </trkpt>
      <trkpt lat="43.522135" lon="1.466306">
        <ele>206.7</ele>
        <time>2014-03-20T15:29:41Z</time>
      </trkpt>
      <trkpt lat="43.522016" lon="1.466391">
        <ele>206.9</ele>
        <time>2014-03-20T15:29:55Z</time>
      </trkpt>
      <trkpt lat="43.521913" lon="1.466436">
        <ele>207.2</ele>
        <time>2014-03-20T15:30:07Z</time>
      </trkpt>
      <trkpt lat="43.521803" lon="1.466492">
        <ele>208.5</ele>
        <time>2014-03-20T15:30:22Z</time>
      </trkpt>
      <trkpt lat="43.521679" lon="1.466542">
        <ele>210.1</ele>
        <time>2014-03-20T15:30:42Z</time>
      </trkpt>
      <trkpt lat="43.521542" lon="1.466602">
        <ele>210.8</ele>
        <time>2014-03-20T15:30:57Z</time>
      </trkpt>
      <trkpt lat="43.521451" lon="1.466689">
        <ele>210.5</ele>
        <time>2014-03-20T15:31:12Z</time>
      </trkpt>
      <trkpt lat="43.521396" lon="1.466693">
        <ele>210.5</ele>
        <time>2014-03-20T15:31:34Z</time>
      </trkpt>
      <trkpt lat="43.521286" lon="1.466666">
        <ele>209.7</ele>
        <time>2014-03-20T15:32:03Z</time>
      </trkpt>
      <trkpt lat="43.521252" lon="1.466779">
        <ele>209.7</ele>
        <time>2014-03-20T15:32:38Z</time>
      </trkpt>
      <trkpt lat="43.521175" lon="1.466927">
        <ele>210.6</ele>
        <time>2014-03-20T15:32:55Z</time>
      </trkpt>
      <trkpt lat="43.521061" lon="1.466990">
        <ele>210.6</ele>
        <time>2014-03-20T15:33:08Z</time>
      </trkpt>
      <trkpt lat="43.520949" lon="1.467034">
        <ele>210.3</ele>
        <time>2014-03-20T15:33:20Z</time>
      </trkpt>
      <trkpt lat="43.520824" lon="1.467052">
        <ele>211.5</ele>
        <time>2014-03-20T15:33:38Z</time>
      </trkpt>
      <trkpt lat="43.520786" lon="1.467114">
        <ele>230.7</ele>
        <time>2014-03-20T15:33:56Z</time>
      </trkpt>
      <trkpt lat="43.520840" lon="1.467209">
        <ele>231.5</ele>
        <time>2014-03-20T15:34:13Z</time>
      </trkpt>
      <trkpt lat="43.520896" lon="1.467403">
        <ele>233.6</ele>
        <time>2014-03-20T15:34:29Z</time>
      </trkpt>
      <trkpt lat="43.520972" lon="1.467536">
        <ele>235.2</ele>
        <time>2014-03-20T15:34:56Z</time>
      </trkpt>
      <trkpt lat="43.521075" lon="1.467711">
        <ele>237.4</ele>
        <time>2014-03-20T15:35:13Z</time>
      </trkpt>
      <trkpt lat="43.521136" lon="1.467887">
        <ele>239.1</ele>
        <time>2014-03-20T15:35:37Z</time>
      </trkpt>
      <trkpt lat="43.521150" lon="1.467923">
        <ele>239.5</ele>
        <time>2014-03-20T15:42:35Z</time>
      </trkpt>
      <trkpt lat="43.521188" lon="1.467971">
        <ele>240.1</ele>
        <time>2014-03-20T15:42:49Z</time>
      </trkpt>
      <trkpt lat="43.521215" lon="1.468011">
        <ele>240.5</ele>
        <time>2014-03-20T15:43:00Z</time>
      </trkpt>
      <trkpt lat="43.521241" lon="1.468029">
        <ele>232.9</ele>
        <time>2014-03-20T15:43:26Z</time>
      </trkpt>
      <trkpt lat="43.521263" lon="1.468092">
        <ele>232.9</ele>
        <time>2014-03-20T15:43:43Z</time>
      </trkpt>
      <trkpt lat="43.521284" lon="1.468212">
        <ele>233.0</ele>
        <time>2014-03-20T15:43:53Z</time>
      </trkpt>
      <trkpt lat="43.521269" lon="1.468356">
        <ele>234.9</ele>
        <time>2014-03-20T15:44:03Z</time>
      </trkpt>
      <trkpt lat="43.521255" lon="1.468498">
        <ele>237.7</ele>
        <time>2014-03-20T15:44:14Z</time>
      </trkpt>
      <trkpt lat="43.521281" lon="1.468623">
        <ele>239.6</ele>
        <time>2014-03-20T15:44:23Z</time>
      </trkpt>
      <trkpt lat="43.521311" lon="1.468757">
        <ele>241.5</ele>
        <time>2014-03-20T15:44:33Z</time>
      </trkpt>
      <trkpt lat="43.521367" lon="1.468880">
        <ele>242.6</ele>
        <time>2014-03-20T15:44:43Z</time>
      </trkpt>
      <trkpt lat="43.521475" lon="1.468845">
        <ele>244.5</ele>
        <time>2014-03-20T15:44:54Z</time>
      </trkpt>
      <trkpt lat="43.521570" lon="1.468774">
        <ele>245.2</ele>
        <time>2014-03-20T15:45:04Z</time>
      </trkpt>
      <trkpt lat="43.521648" lon="1.468841">
        <ele>245.7</ele>
        <time>2014-03-20T15:45:20Z</time>
      </trkpt>
      <trkpt lat="43.521722" lon="1.468938">
        <ele>247.5</ele>
        <time>2014-03-20T15:45:34Z</time>
      </trkpt>
      <trkpt lat="43.521785" lon="1.469042">
        <ele>249.3</ele>
        <time>2014-03-20T15:45:53Z</time>
      </trkpt>
      <trkpt lat="43.521881" lon="1.469124">
        <ele>251.1</ele>
        <time>2014-03-20T15:46:05Z</time>
      </trkpt>
      <trkpt lat="43.521984" lon="1.469210">
        <ele>252.8</ele>
        <time>2014-03-20T15:46:58Z</time>
      </trkpt>
      <trkpt lat="43.522052" lon="1.469317">
        <ele>252.1</ele>
        <time>2014-03-20T15:47:10Z</time>
      </trkpt>
      <trkpt lat="43.522134" lon="1.469426">
        <ele>250.6</ele>
        <time>2014-03-20T15:47:21Z</time>
      </trkpt>
      <trkpt lat="43.522222" lon="1.469475">
        <ele>248.8</ele>
        <time>2014-03-20T15:47:29Z</time>
      </trkpt>
      <trkpt lat="43.522297" lon="1.469561">
        <ele>246.4</ele>
        <time>2014-03-20T15:47:41Z</time>
      </trkpt>
      <trkpt lat="43.522385" lon="1.469630">
        <ele>244.0</ele>
        <time>2014-03-20T15:47:53Z</time>
      </trkpt>
      <trkpt lat="43.522485" lon="1.469699">
        <ele>241.4</ele>
        <time>2014-03-20T15:48:06Z</time>
      </trkpt>
      <trkpt lat="43.522599" lon="1.469768">
        <ele>239.9</ele>
        <time>2014-03-20T15:48:19Z</time>
      </trkpt>
      <trkpt lat="43.522696" lon="1.469817">
        <ele>238.8</ele>
        <time>2014-03-20T15:48:30Z</time>
      </trkpt>
      <trkpt lat="43.522808" lon="1.469875">
        <ele>237.7</ele>
        <time>2014-03-20T15:48:43Z</time>
      </trkpt>
      <trkpt lat="43.522919" lon="1.469926">
        <ele>236.6</ele>
        <time>2014-03-20T15:48:53Z</time>
      </trkpt>
      <trkpt lat="43.523030" lon="1.469951">
        <ele>236.0</ele>
        <time>2014-03-20T15:49:03Z</time>
      </trkpt>
      <trkpt lat="43.523133" lon="1.469971">
        <ele>235.6</ele>
        <time>2014-03-20T15:49:13Z</time>
      </trkpt>
      <trkpt lat="43.523244" lon="1.469963">
        <ele>235.2</ele>
        <time>2014-03-20T15:49:24Z</time>
      </trkpt>
      <trkpt lat="43.523352" lon="1.469955">
        <ele>235.4</ele>
        <time>2014-03-20T15:49:36Z</time>
      </trkpt>
      <trkpt lat="43.523453" lon="1.469956">
        <ele>235.3</ele>
        <time>2014-03-20T15:49:47Z</time>
      </trkpt>
      <trkpt lat="43.523536" lon="1.469979">
        <ele>235.8</ele>
        <time>2014-03-20T15:49:57Z</time>
      </trkpt>
      <trkpt lat="43.523633" lon="1.470057">
        <ele>236.5</ele>
        <time>2014-03-20T15:50:10Z</time>
      </trkpt>
      <trkpt lat="43.523728" lon="1.470129">
        <ele>236.9</ele>
        <time>2014-03-20T15:50:21Z</time>
      </trkpt>
      <trkpt lat="43.523806" lon="1.470186">
        <ele>237.4</ele>
        <time>2014-03-20T15:50:32Z</time>
      </trkpt>
      <trkpt lat="43.523870" lon="1.470263">
        <ele>238.4</ele>
        <time>2014-03-20T15:50:43Z</time>
      </trkpt>
      <trkpt lat="43.523939" lon="1.470332">
        <ele>239.2</ele>
        <time>2014-03-20T15:50:55Z</time>
      </trkpt>
      <trkpt lat="43.524009" lon="1.470426">
        <ele>240.3</ele>
        <time>2014-03-20T15:51:09Z</time>
      </trkpt>
      <trkpt lat="43.524074" lon="1.470518">
        <ele>242.0</ele>
        <time>2014-03-20T15:51:22Z</time>
      </trkpt>
      <trkpt lat="43.524153" lon="1.470605">
        <ele>242.5</ele>
        <time>2014-03-20T15:51:33Z</time>
      </trkpt>
      <trkpt lat="43.524235" lon="1.470670">
        <ele>243.1</ele>
        <time>2014-03-20T15:51:43Z</time>
      </trkpt>
      <trkpt lat="43.524320" lon="1.470731">
        <ele>243.8</ele>
        <time>2014-03-20T15:52:47Z</time>
      </trkpt>
      <trkpt lat="43.524413" lon="1.470747">
        <ele>243.8</ele>
        <time>2014-03-20T15:52:57Z</time>
      </trkpt>
      <trkpt lat="43.524505" lon="1.470752">
        <ele>243.6</ele>
        <time>2014-03-20T15:53:06Z</time>
      </trkpt>
      <trkpt lat="43.524595" lon="1.470766">
        <ele>242.7</ele>
        <time>2014-03-20T15:53:16Z</time>
      </trkpt>
      <trkpt lat="43.524687" lon="1.470794">
        <ele>242.1</ele>
        <time>2014-03-20T15:53:26Z</time>
      </trkpt>
      <trkpt lat="43.524774" lon="1.470837">
        <ele>242.1</ele>
        <time>2014-03-20T15:53:35Z</time>
      </trkpt>
      <trkpt lat="43.524852" lon="1.470890">
        <ele>241.6</ele>
        <time>2014-03-20T15:53:45Z</time>
      </trkpt>
      <trkpt lat="43.524936" lon="1.470959">
        <ele>241.0</ele>
        <time>2014-03-20T15:53:55Z</time>
      </trkpt>
      <trkpt lat="43.525015" lon="1.471016">
        <ele>240.4</ele>
        <time>2014-03-20T15:54:03Z</time>
      </trkpt>
      <trkpt lat="43.525100" lon="1.471088">
        <ele>239.8</ele>
        <time>2014-03-20T15:54:12Z</time>
      </trkpt>
      <trkpt lat="43.525178" lon="1.471159">
        <ele>239.9</ele>
        <time>2014-03-20T15:54:20Z</time>
      </trkpt>
      <trkpt lat="43.525248" lon="1.471229">
        <ele>239.5</ele>
        <time>2014-03-20T15:54:28Z</time>
      </trkpt>
      <trkpt lat="43.525324" lon="1.471324">
        <ele>239.6</ele>
        <time>2014-03-20T15:54:37Z</time>
      </trkpt>
      <trkpt lat="43.525398" lon="1.471407">
        <ele>238.9</ele>
        <time>2014-03-20T15:54:46Z</time>
      </trkpt>
      <trkpt lat="43.525446" lon="1.471521">
        <ele>239.1</ele>
        <time>2014-03-20T15:54:56Z</time>
      </trkpt>
      <trkpt lat="43.525520" lon="1.471613">
        <ele>238.7</ele>
        <time>2014-03-20T15:55:06Z</time>
      </trkpt>
      <trkpt lat="43.525583" lon="1.471705">
        <ele>238.4</ele>
        <time>2014-03-20T15:55:15Z</time>
      </trkpt>
      <trkpt lat="43.525628" lon="1.471781">
        <ele>236.8</ele>
        <time>2014-03-20T15:56:24Z</time>
        <name>Blancas</name>
      </trkpt>
      <trkpt lat="43.525555" lon="1.471894">
        <ele>236.8</ele>
        <time>2014-03-20T15:56:36Z</time>
      </trkpt>
      <trkpt lat="43.525484" lon="1.471993">
        <ele>236.2</ele>
        <time>2014-03-20T15:56:47Z</time>
      </trkpt>
      <trkpt lat="43.525434" lon="1.472149">
        <ele>235.0</ele>
        <time>2014-03-20T15:56:59Z</time>
      </trkpt>
      <trkpt lat="43.525422" lon="1.472326">
        <ele>233.6</ele>
        <time>2014-03-20T15:57:09Z</time>
      </trkpt>
      <trkpt lat="43.525449" lon="1.472471">
        <ele>232.4</ele>
        <time>2014-03-20T15:57:17Z</time>
      </trkpt>
      <trkpt lat="43.525494" lon="1.472604">
        <ele>231.5</ele>
        <time>2014-03-20T15:57:25Z</time>
      </trkpt>
      <trkpt lat="43.525540" lon="1.472713">
        <ele>230.2</ele>
        <time>2014-03-20T15:57:34Z</time>
      </trkpt>
      <trkpt lat="43.525583" lon="1.472828">
        <ele>229.6</ele>
        <time>2014-03-20T15:57:44Z</time>
      </trkpt>
      <trkpt lat="43.525601" lon="1.472964">
        <ele>228.8</ele>
        <time>2014-03-20T15:57:54Z</time>
      </trkpt>
      <trkpt lat="43.525620" lon="1.473114">
        <ele>226.6</ele>
        <time>2014-03-20T15:58:07Z</time>
      </trkpt>
      <trkpt lat="43.525609" lon="1.473300">
        <ele>225.4</ele>
        <time>2014-03-20T15:58:22Z</time>
      </trkpt>
      <trkpt lat="43.525618" lon="1.473485">
        <ele>222.6</ele>
        <time>2014-03-20T15:58:38Z</time>
      </trkpt>
      <trkpt lat="43.525625" lon="1.473663">
        <ele>220.7</ele>
        <time>2014-03-20T15:58:52Z</time>
      </trkpt>
      <trkpt lat="43.525633" lon="1.473877">
        <ele>218.5</ele>
        <time>2014-03-20T15:59:09Z</time>
      </trkpt>
      <trkpt lat="43.525639" lon="1.474080">
        <ele>216.9</ele>
        <time>2014-03-20T15:59:22Z</time>
      </trkpt>
      <trkpt lat="43.525651" lon="1.474233">
        <ele>215.6</ele>
        <time>2014-03-20T15:59:35Z</time>
      </trkpt>
      <trkpt lat="43.525654" lon="1.474381">
        <ele>214.8</ele>
        <time>2014-03-20T15:59:46Z</time>
      </trkpt>
      <trkpt lat="43.525668" lon="1.474515">
        <ele>213.8</ele>
        <time>2014-03-20T15:59:57Z</time>
      </trkpt>
      <trkpt lat="43.525668" lon="1.474641">
        <ele>213.1</ele>
        <time>2014-03-20T16:00:09Z</time>
      </trkpt>
      <trkpt lat="43.525677" lon="1.474769">
        <ele>212.8</ele>
        <time>2014-03-20T16:00:18Z</time>
      </trkpt>
      <trkpt lat="43.525679" lon="1.474911">
        <ele>212.4</ele>
        <time>2014-03-20T16:00:28Z</time>
      </trkpt>
      <trkpt lat="43.525696" lon="1.475066">
        <ele>211.6</ele>
        <time>2014-03-20T16:00:39Z</time>
      </trkpt>
      <trkpt lat="43.525715" lon="1.475224">
        <ele>211.3</ele>
        <time>2014-03-20T16:00:49Z</time>
      </trkpt>
      <trkpt lat="43.525741" lon="1.475422">
        <ele>210.6</ele>
        <time>2014-03-20T16:01:02Z</time>
      </trkpt>
      <trkpt lat="43.525808" lon="1.475554">
        <ele>209.7</ele>
        <time>2014-03-20T16:01:13Z</time>
      </trkpt>
      <trkpt lat="43.525871" lon="1.475674">
        <ele>209.6</ele>
        <time>2014-03-20T16:01:23Z</time>
      </trkpt>
      <trkpt lat="43.525954" lon="1.475759">
        <ele>209.6</ele>
        <time>2014-03-20T16:01:33Z</time>
      </trkpt>
      <trkpt lat="43.526024" lon="1.475856">
        <ele>210.5</ele>
        <time>2014-03-20T16:01:45Z</time>
      </trkpt>
      <trkpt lat="43.526119" lon="1.475944">
        <ele>210.9</ele>
        <time>2014-03-20T16:01:56Z</time>
      </trkpt>
      <trkpt lat="43.526187" lon="1.476064">
        <ele>211.4</ele>
        <time>2014-03-20T16:02:08Z</time>
      </trkpt>
      <trkpt lat="43.526261" lon="1.476169">
        <ele>212.2</ele>
        <time>2014-03-20T16:02:19Z</time>
      </trkpt>
      <trkpt lat="43.526326" lon="1.476276">
        <ele>212.7</ele>
        <time>2014-03-20T16:02:29Z</time>
      </trkpt>
      <trkpt lat="43.526403" lon="1.476367">
        <ele>212.7</ele>
        <time>2014-03-20T16:02:39Z</time>
      </trkpt>
      <trkpt lat="43.526478" lon="1.476452">
        <ele>212.6</ele>
        <time>2014-03-20T16:02:48Z</time>
      </trkpt>
      <trkpt lat="43.526551" lon="1.476554">
        <ele>212.3</ele>
        <time>2014-03-20T16:02:57Z</time>
      </trkpt>
      <trkpt lat="43.526624" lon="1.476648">
        <ele>212.1</ele>
        <time>2014-03-20T16:03:06Z</time>
      </trkpt>
      <trkpt lat="43.526696" lon="1.476737">
        <ele>211.8</ele>
        <time>2014-03-20T16:03:15Z</time>
      </trkpt>
      <trkpt lat="43.526751" lon="1.476854">
        <ele>212.0</ele>
        <time>2014-03-20T16:03:26Z</time>
      </trkpt>
      <trkpt lat="43.526822" lon="1.476894">
        <ele>212.4</ele>
        <time>2014-03-20T16:04:04Z</time>
      </trkpt>
      <trkpt lat="43.526916" lon="1.476992">
        <ele>212.3</ele>
        <time>2014-03-20T16:04:14Z</time>
      </trkpt>
      <trkpt lat="43.526998" lon="1.477078">
        <ele>212.1</ele>
        <time>2014-03-20T16:04:25Z</time>
      </trkpt>
      <trkpt lat="43.527115" lon="1.477125">
        <ele>211.8</ele>
        <time>2014-03-20T16:04:37Z</time>
      </trkpt>
      <trkpt lat="43.527248" lon="1.477191">
        <ele>211.0</ele>
        <time>2014-03-20T16:04:48Z</time>
      </trkpt>
      <trkpt lat="43.527350" lon="1.477277">
        <ele>210.4</ele>
        <time>2014-03-20T16:04:59Z</time>
      </trkpt>
      <trkpt lat="43.527455" lon="1.477301">
        <ele>210.5</ele>
        <time>2014-03-20T16:05:37Z</time>
      </trkpt>
      <trkpt lat="43.527565" lon="1.477295">
        <ele>210.7</ele>
        <time>2014-03-20T16:05:47Z</time>
      </trkpt>
      <trkpt lat="43.527677" lon="1.477313">
        <ele>210.6</ele>
        <time>2014-03-20T16:05:55Z</time>
      </trkpt>
      <trkpt lat="43.527795" lon="1.477333">
        <ele>210.4</ele>
        <time>2014-03-20T16:06:05Z</time>
      </trkpt>
      <trkpt lat="43.527887" lon="1.477378">
        <ele>209.7</ele>
        <time>2014-03-20T16:06:18Z</time>
      </trkpt>
      <trkpt lat="43.527988" lon="1.477440">
        <ele>208.4</ele>
        <time>2014-03-20T16:06:29Z</time>
      </trkpt>
      <trkpt lat="43.528078" lon="1.477504">
        <ele>207.7</ele>
        <time>2014-03-20T16:06:41Z</time>
      </trkpt>
      <trkpt lat="43.528192" lon="1.477588">
        <ele>206.6</ele>
        <time>2014-03-20T16:06:54Z</time>
      </trkpt>
      <trkpt lat="43.528305" lon="1.477647">
        <ele>205.9</ele>
        <time>2014-03-20T16:07:05Z</time>
      </trkpt>
      <trkpt lat="43.528420" lon="1.477673">
        <ele>204.7</ele>
        <time>2014-03-20T16:07:16Z</time>
      </trkpt>
      <trkpt lat="43.528536" lon="1.477668">
        <ele>203.6</ele>
        <time>2014-03-20T16:07:27Z</time>
      </trkpt>
      <trkpt lat="43.528681" lon="1.477660">
        <ele>202.7</ele>
        <time>2014-03-20T16:07:40Z</time>
      </trkpt>
      <trkpt lat="43.528798" lon="1.477675">
        <ele>201.0</ele>
        <time>2014-03-20T16:07:50Z</time>
      </trkpt>
      <trkpt lat="43.528920" lon="1.477723">
        <ele>200.1</ele>
        <time>2014-03-20T16:08:00Z</time>
      </trkpt>
      <trkpt lat="43.529042" lon="1.477730">
        <ele>199.1</ele>
        <time>2014-03-20T16:08:12Z</time>
      </trkpt>
      <trkpt lat="43.529150" lon="1.477772">
        <ele>198.2</ele>
        <time>2014-03-20T16:08:22Z</time>
      </trkpt>
      <trkpt lat="43.529239" lon="1.477857">
        <ele>197.2</ele>
        <time>2014-03-20T16:08:32Z</time>
      </trkpt>
      <trkpt lat="43.529302" lon="1.477951">
        <ele>196.7</ele>
        <time>2014-03-20T16:08:41Z</time>
      </trkpt>
      <trkpt lat="43.529397" lon="1.478036">
        <ele>196.1</ele>
        <time>2014-03-20T16:08:51Z</time>
      </trkpt>
      <trkpt lat="43.529483" lon="1.478174">
        <ele>195.6</ele>
        <time>2014-03-20T16:09:03Z</time>
      </trkpt>
      <trkpt lat="43.529542" lon="1.478288">
        <ele>195.4</ele>
        <time>2014-03-20T16:09:13Z</time>
      </trkpt>
      <trkpt lat="43.529637" lon="1.478361">
        <ele>195.4</ele>
        <time>2014-03-20T16:09:22Z</time>
      </trkpt>
      <trkpt lat="43.529741" lon="1.478415">
        <ele>195.3</ele>
        <time>2014-03-20T16:09:31Z</time>
      </trkpt>
      <trkpt lat="43.529840" lon="1.478450">
        <ele>195.1</ele>
        <time>2014-03-20T16:09:40Z</time>
      </trkpt>
      <trkpt lat="43.529932" lon="1.478511">
        <ele>194.7</ele>
        <time>2014-03-20T16:09:50Z</time>
      </trkpt>
    </trkseg>
  </trk>
</gpx>

